createdAt,value
2022-11-27T00:02:00.830Z,3.37
2022-11-27T00:12:02.524Z,3.25
2022-11-27T00:22:06.655Z,3.10
2022-11-27T00:32:09.383Z,2.89
2022-11-27T00:42:17.240Z,2.88
2022-11-27T00:52:18.955Z,2.75
2022-11-27T01:02:21.708Z,2.72
2022-11-27T01:12:23.504Z,2.76
2022-11-27T01:22:26.391Z,2.78
2022-11-27T01:32:30.142Z,2.59
2022-11-27T01:42:32.906Z,2.74
2022-11-27T01:52:46.396Z,2.71
2022-11-27T02:02:49.492Z,2.57
2022-11-27T02:13:09.629Z,2.77
2022-11-27T02:23:22.241Z,2.79
2022-11-27T02:33:25.628Z,2.81
2022-11-27T02:43:58.348Z,2.79
2022-11-27T02:54:05.070Z,2.62
2022-11-27T03:04:13.571Z,2.65
2022-11-27T03:14:24.899Z,2.73
2022-11-27T03:24:30.321Z,2.97
2022-11-27T03:34:34.058Z,2.94
2022-11-27T03:44:46.679Z,3.16
2022-11-27T03:55:10.404Z,3.01
2022-11-27T04:05:18.555Z,3.22
2022-11-27T04:15:20.368Z,3.17
2022-11-27T04:25:23.185Z,3.17
2022-11-27T04:35:46.721Z,3.35
2022-11-27T04:46:04.915Z,3.58
2022-11-27T04:56:18.951Z,3.66
2022-11-27T05:06:22.768Z,3.80
2022-11-27T05:16:26.851Z,3.90
2022-11-27T05:26:29.688Z,3.92
2022-11-27T05:36:35.108Z,3.87
2022-11-27T05:46:36.770Z,3.94
2022-11-27T05:56:38.527Z,4.06
2022-11-27T06:06:41.217Z,4.09
2022-11-27T06:16:43.887Z,4.16
2022-11-27T06:26:45.820Z,4.27
2022-11-27T06:37:00.523Z,4.29
2022-11-27T06:47:10.618Z,4.43
2022-11-27T06:57:13.714Z,4.56
2022-11-27T07:07:20.557Z,4.61
2022-11-27T07:17:23.765Z,4.59
2022-11-27T07:27:26.737Z,4.57
2022-11-27T07:37:31.877Z,4.90
2022-11-27T07:47:41.293Z,5.05
2022-11-27T07:57:45.048Z,4.97
2022-11-27T08:07:46.938Z,5.51
2022-11-27T08:17:53.070Z,5.79
2022-11-27T08:27:54.998Z,6.34
2022-11-27T08:37:56.666Z,6.49
2022-11-27T08:48:04.350Z,6.39
2022-11-27T08:58:06.594Z,6.28
2022-11-27T09:08:08.310Z,6.31
2022-11-27T09:18:10.320Z,6.19
2022-11-27T09:28:12.949Z,6.08
2022-11-27T09:38:14.703Z,5.98
2022-11-27T09:48:29.608Z,5.88
2022-11-27T09:58:38.669Z,5.81
2022-11-27T10:08:40.380Z,5.90
2022-11-27T10:18:55.288Z,6.10
2022-11-27T10:29:23.223Z,6.21
2022-11-27T10:39:41.399Z,6.41
2022-11-27T10:49:44.991Z,6.09
2022-11-27T11:00:11.180Z,6.08
2022-11-27T11:10:33.848Z,5.77
2022-11-27T11:20:47.170Z,5.75
2022-11-27T11:31:06.398Z,5.98
2022-11-27T11:41:08.308Z,5.68
2022-11-27T11:51:29.308Z,5.82
2022-11-27T12:02:16.436Z,6.31
2022-11-27T12:12:33.391Z,6.25
2022-11-27T12:22:41.451Z,5.99
2022-11-27T12:33:08.798Z,5.89
2022-11-27T12:43:30.759Z,5.85
2022-11-27T12:53:41.720Z,5.83
2022-11-27T13:03:46.305Z,5.79
2022-11-27T13:14:01.288Z,5.64
2022-11-27T13:24:04.078Z,5.50
2022-11-27T13:34:22.081Z,5.23
2022-11-27T13:44:26.910Z,5.26
2022-11-27T13:54:29.264Z,5.19
2022-11-27T14:04:34.552Z,5.05
2022-11-27T14:14:36.739Z,5.11
2022-11-27T14:24:44.547Z,5.19
2022-11-27T14:34:52.114Z,5.25
2022-11-27T14:45:10.253Z,5.08
2022-11-27T14:55:22.409Z,5.11
2022-11-27T15:05:27.625Z,5.08
2022-11-27T15:15:44.581Z,5.01
2022-11-27T15:25:53.054Z,4.91
2022-11-27T15:36:20.588Z,5.02
2022-11-27T15:46:30.245Z,5.08
2022-11-27T15:56:38.926Z,5.00
2022-11-27T16:06:42.611Z,5.07
2022-11-27T16:16:49.553Z,5.03
2022-11-27T16:26:52.381Z,4.90
2022-11-27T16:36:54.353Z,4.89
2022-11-27T16:46:58.745Z,4.96
2022-11-27T16:57:00.792Z,4.89
2022-11-27T17:07:04.111Z,4.88
2022-11-27T17:17:09.859Z,4.82
2022-11-27T17:27:15.122Z,4.71
2022-11-27T17:37:16.820Z,4.85
2022-11-27T17:47:18.794Z,4.86
2022-11-27T17:57:20.973Z,4.80
2022-11-27T18:07:23.095Z,4.78
2022-11-27T18:17:29.276Z,4.68
2022-11-27T18:27:31.567Z,4.52
2022-11-27T18:37:45.153Z,4.47
2022-11-27T18:47:47.413Z,4.43
2022-11-27T18:57:49.961Z,4.45
2022-11-27T19:07:53.327Z,4.47
2022-11-27T19:17:55.754Z,4.37
2022-11-27T19:27:58.046Z,4.40
2022-11-27T19:38:00.809Z,4.36
2022-11-27T19:48:03.901Z,4.39
2022-11-27T19:58:05.949Z,4.29
2022-11-27T20:08:08.023Z,4.19
2022-11-27T20:18:16.838Z,4.16
2022-11-27T20:28:19.222Z,4.18
2022-11-27T20:38:22.383Z,4.29
2022-11-27T20:48:25.220Z,4.13
2022-11-27T20:58:30.648Z,4.08
2022-11-27T21:08:35.070Z,4.04
2022-11-27T21:18:37.499Z,4.13
2022-11-27T21:28:41.058Z,4.03
2022-11-27T21:38:43.049Z,4.07
2022-11-27T21:48:47.437Z,4.01
2022-11-27T21:58:49.462Z,4.16
2022-11-27T22:08:52.231Z,4.06
2022-11-27T22:18:55.766Z,4.03
2022-11-27T22:28:58.027Z,4.05
2022-11-27T22:39:02.401Z,3.98
2022-11-27T22:49:06.796Z,3.91
2022-11-27T23:09:30.356Z,3.80
2022-11-27T23:19:35.575Z,3.88
2022-11-27T23:29:37.880Z,3.79
2022-11-27T23:39:48.147Z,3.77
2022-11-27T23:49:50.284Z,3.77
2022-11-27T23:59:55.551Z,3.79
